DTTF

Details ICAO DTTF (GAF)
Name GAFSA
Region Tunisia
Timezone Africa/Tunis (UTC+1.0)
Plans Departing 4
Arriving 3
Stats Elevation 1,060 ft / 323 m (AMSL)
Location 34.422153° 8.822546°
Runways 1
Magnetic Variation 2.039° E
Sunrise 2017-12-17 06:26:28 UTC / 2017-12-17 07:26:28 Local
Sunset 2017-12-17 16:17:55 UTC / 2017-12-17 17:17:55 Local
Advertisement - Login to hide

Runways

ID Width Length Bearing (true) Bearing (mag) Surface Threshold Offset Overrun Length
05 148 ft / 45 m 9,560 ft / 2,914 m 48.37° 46.33° Asphalt 0 ft / 0 m 213 ft / 65 m
23 148 ft / 45 m 9,560 ft / 2,914 m 228.39° 226.35° Asphalt 0 ft / 0 m 180 ft / 55 m

Map

Weather


0- 5 10 15 20 25 30 35+ Temperature / ° C

Clouds and Precipitation
Forecast for 2017-12-17 06:00 UTC. Updated an hour ago

Ground ~20,000 ft ~40,000 ft Winds

METAR

DTTF 170200Z 06010KT 9999 SCT026 SCT033 10/04 Q1019 NOSIG

TAF

Not found

Frequencies

Tower 122.10 MHz TWR
Approach 122.10 MHz APP
Warning: Do not use this data for real-world aviation or navigation. No guarantee of current accuracy is given.